Time;durP1;ratioP1;P1;durP2;ratioP2;P2;SDS_P1;SDS_P2;PMS_P1;PMS_P2;Temp;Humidity;BMP_temperature;BMP_pressure;BME280_temperature;BME280_humidity;BME280_pressure;Samples;Min_cycle;Max_cycle;Signal;HPM_P1;HPM_P2
2022/09/21 00:01:14;;;;;;;10.32;3.85;;;9.40;1.00;;;;;;5032269;28;20332;-80
2022/09/21 00:03:42;;;;;;;10.05;3.95;;;9.40;1.00;;;;;;5033974;28;20234;-81
2022/09/21 00:06:14;;;;;;;11.23;4.40;;;9.40;1.00;;;;;;5032148;28;20202;-81
2022/09/21 00:08:41;;;;;;;10.95;4.60;;;9.40;1.00;;;;;;5019985;28;20466;-81
2022/09/21 00:11:12;;;;;;;12.43;4.70;;;9.50;1.00;;;;;;5034340;28;20264;-81
2022/09/21 00:13:42;;;;;;;12.80;5.00;;;9.50;1.00;;;;;;5015614;28;20270;-81
2022/09/21 00:16:09;;;;;;;12.07;4.60;;;9.40;1.00;;;;;;5019308;28;20457;-81
2022/09/21 00:18:36;;;;;;;12.63;4.55;;;9.40;1.00;;;;;;5034164;28;20485;-82
2022/09/21 00:21:06;;;;;;;10.68;4.85;;;9.30;1.00;;;;;;5033956;28;20234;-81
2022/09/21 00:23:34;;;;;;;10.35;4.10;;;9.30;1.00;;;;;;5019578;28;20288;-80
2022/09/21 00:26:10;;;;;;;11.55;4.35;;;9.30;1.00;;;;;;5015423;28;20249;-81
2022/09/21 00:28:39;;;;;;;11.25;4.57;;;9.30;1.00;;;;;;5021658;28;20248;-81
2022/09/21 00:31:11;;;;;;;11.27;4.40;;;9.20;1.00;;;;;;5032834;28;20729;-81
2022/09/21 00:33:38;;;;;;;12.27;4.40;;;9.20;1.00;;;;;;5034121;28;20223;-79
2022/09/21 00:36:07;;;;;;;12.27;4.60;;;9.20;1.00;;;;;;5037857;28;20238;-79
2022/09/21 00:38:35;;;;;;;12.47;4.00;;;9.20;1.00;;;;;;5033246;28;20470;-82
2022/09/21 00:41:04;;;;;;;11.05;4.43;;;9.20;1.00;;;;;;5016896;28;20528;-80
2022/09/21 00:43:34;;;;;;;11.55;3.55;;;9.20;1.00;;;;;;5035103;28;20234;-80
2022/09/21 00:46:04;;;;;;;10.82;4.30;;;9.10;1.00;;;;;;5034644;28;20733;-81
2022/09/21 00:48:35;;;;;;;10.18;3.85;;;9.10;1.00;;;;;;5032676;28;20975;-82
2022/09/21 00:51:05;;;;;;;11.75;4.05;;;9.10;1.00;;;;;;5031569;28;20234;-80
2022/09/21 00:53:35;;;;;;;12.85;5.80;;;9.10;1.00;;;;;;5035467;28;20256;-79
2022/09/21 00:56:04;;;;;;;10.20;3.53;;;9.10;1.00;;;;;;5035328;28;20221;-81
2022/09/21 00:58:37;;;;;;;11.82;4.65;;;9.20;1.00;;;;;;5034504;28;20226;-81
2022/09/21 01:01:05;;;;;;;10.70;4.10;;;9.20;1.00;;;;;;5014662;28;20252;-80
2022/09/21 01:03:37;;;;;;;10.98;4.43;;;9.20;1.00;;;;;;5034650;28;20276;-81
2022/09/21 01:06:04;;;;;;;10.35;4.18;;;9.20;1.00;;;;;;5032389;28;20958;-81
2022/09/21 01:08:33;;;;;;;12.50;5.43;;;9.30;1.00;;;;;;5034918;28;20240;-82
2022/09/21 01:11:22;;;;;;;10.40;4.45;;;9.30;1.00;;;;;;5031885;28;20241;-80
2022/09/21 01:14:08;;;;;;;10.95;3.95;;;9.30;1.00;;;;;;5032297;28;20238;-81
2022/09/21 01:16:41;;;;;;;11.63;4.00;;;9.30;1.00;;;;;;5033925;28;20261;-81
2022/09/21 01:19:25;;;;;;;10.10;4.00;;;9.30;1.00;;;;;;5026175;28;20426;-79
2022/09/21 01:22:00;;;;;;;11.75;3.92;;;9.30;1.00;;;;;;5035483;28;20458;-81
2022/09/21 01:24:41;;;;;;;11.57;4.43;;;9.20;1.00;;;;;;5036961;28;20240;-81
2022/09/21 01:27:25;;;;;;;10.90;3.80;;;9.20;1.00;;;;;;5032776;28;20234;-81
2022/09/21 01:30:01;;;;;;;9.85;3.30;;;9.20;1.00;;;;;;5011523;28;20950;-81
2022/09/21 01:32:35;;;;;;;11.13;3.73;;;9.20;1.00;;;;;;5032082;28;20242;-80
2022/09/21 01:35:09;;;;;;;9.73;3.57;;;9.20;1.00;;;;;;5036953;28;20507;-82
2022/09/21 01:37:56;;;;;;;9.60;3.50;;;9.20;1.00;;;;;;5036957;28;20440;-81
2022/09/21 01:40:29;;;;;;;9.73;3.90;;;9.10;1.00;;;;;;5023487;28;20502;-81
2022/09/21 01:43:00;;;;;;;8.60;3.47;;;9.00;1.00;;;;;;5034863;28;20541;-81
2022/09/21 01:45:34;;;;;;;10.77;3.53;;;9.10;1.00;;;;;;5036546;28;20241;-80
2022/09/21 01:48:02;;;;;;;10.30;3.73;;;9.00;1.00;;;;;;5035126;28;20233;-80
2022/09/21 01:50:33;;;;;;;10.47;4.50;;;9.00;1.00;;;;;;5031208;28;20448;-79
2022/09/21 01:53:05;;;;;;;9.55;3.42;;;9.10;1.00;;;;;;5027272;28;20454;-78
2022/09/21 01:55:41;;;;;;;10.88;3.72;;;9.10;1.00;;;;;;5032898;28;20738;-77
2022/09/21 01:58:16;;;;;;;9.90;3.53;;;9.10;1.00;;;;;;5026080;28;21226;-81
2022/09/21 02:00:46;;;;;;;9.80;3.93;;;9.20;1.00;;;;;;5027618;28;20233;-82
2022/09/21 02:03:19;;;;;;;9.50;3.70;;;9.20;1.00;;;;;;5033005;28;20456;-81
2022/09/21 02:05:46;;;;;;;10.43;3.67;;;9.20;1.00;;;;;;5019308;28;20308;-81
2022/09/21 02:08:13;;;;;;;11.77;3.80;;;9.30;1.00;;;;;;5026873;28;20481;-79
2022/09/21 02:10:44;;;;;;;10.10;3.90;;;9.20;1.00;;;;;;5032581;28;20245;-80
2022/09/21 02:13:15;;;;;;;9.13;3.00;;;9.20;1.00;;;;;;5032158;28;20935;-78
2022/09/21 02:16:02;;;;;;;9.23;3.70;;;9.20;1.00;;;;;;5029875;28;20683;-83
2022/09/21 02:18:40;;;;;;;10.80;3.80;;;9.20;1.00;;;;;;5016890;28;20425;-78
2022/09/21 02:21:15;;;;;;;11.27;3.73;;;9.10;1.00;;;;;;5031895;28;20221;-80
2022/09/21 02:23:49;;;;;;;9.65;3.60;;;9.10;1.00;;;;;;5028424;28;20413;-82
2022/09/21 02:26:23;;;;;;;9.63;4.10;;;9.10;1.00;;;;;;5031679;28;20234;-80
2022/09/21 02:28:56;;;;;;;10.67;3.80;;;9.10;1.00;;;;;;5028541;28;20438;-79
2022/09/21 02:31:30;;;;;;;9.80;3.90;;;9.10;1.00;;;;;;5032467;28;20437;-78
2022/09/21 02:34:00;;;;;;;11.10;4.10;;;9.10;1.00;;;;;;5011811;28;20444;-80
2022/09/21 02:36:34;;;;;;;10.57;3.58;;;9.10;1.00;;;;;;5028607;28;20329;-80
2022/09/21 02:39:07;;;;;;;11.10;4.30;;;9.10;1.00;;;;;;5028255;28;20233;-81
2022/09/21 02:41:40;;;;;;;9.77;3.33;;;9.10;1.00;;;;;;5033591;28;20246;-81
2022/09/21 02:44:11;;;;;;;10.25;4.15;;;9.10;1.00;;;;;;5031570;28;20245;-81
2022/09/21 02:46:43;;;;;;;10.45;3.60;;;9.10;1.00;;;;;;5029419;28;20701;-80
2022/09/21 02:49:16;;;;;;;10.45;4.25;;;9.10;1.00;;;;;;5028374;28;20245;-79
2022/09/21 02:51:47;;;;;;;11.55;3.92;;;9.10;1.00;;;;;;5027826;28;20234;-80
2022/09/21 02:54:17;;;;;;;12.93;5.05;;;9.10;1.00;;;;;;5020734;28;20233;-79
2022/09/21 02:56:47;;;;;;;13.40;4.40;;;9.00;1.00;;;;;;5029084;28;20313;-80
2022/09/21 02:59:15;;;;;;;11.27;4.50;;;9.00;1.00;;;;;;5026500;28;20248;-80
2022/09/21 03:01:44;;;;;;;12.02;4.35;;;8.90;1.00;;;;;;5030585;28;20433;-80
2022/09/21 03:04:14;;;;;;;13.27;4.18;;;8.90;1.00;;;;;;5030949;28;20981;-79
2022/09/21 03:06:41;;;;;;;11.55;4.22;;;8.90;1.00;;;;;;5030568;28;21042;-82
2022/09/21 03:09:09;;;;;;;11.57;5.07;;;8.90;1.00;;;;;;5031029;28;20245;-80
2022/09/21 03:11:41;;;;;;;15.23;4.93;;;8.90;1.00;;;;;;5031020;28;21903;-81
2022/09/21 03:14:08;;;;;;;12.90;6.00;;;8.90;1.00;;;;;;5015929;28;20293;-79
2022/09/21 03:16:35;;;;;;;13.70;5.80;;;8.90;1.00;;;;;;5028534;28;21181;-80
2022/09/21 03:19:04;;;;;;;12.10;5.30;;;8.90;1.00;;;;;;5018689;28;20273;-80
2022/09/21 03:21:31;;;;;;;12.02;5.78;;;8.90;1.00;;;;;;5034525;28;21125;-80
2022/09/21 03:23:58;;;;;;;12.80;5.67;;;8.90;1.00;;;;;;5031317;28;20772;-80
2022/09/21 03:26:25;;;;;;;16.85;7.32;;;8.80;1.00;;;;;;5027297;28;20433;-80
2022/09/21 03:28:53;;;;;;;15.90;6.25;;;8.80;1.00;;;;;;5035810;28;20238;-80
2022/09/21 03:31:21;;;;;;;16.00;5.95;;;8.80;1.00;;;;;;5035676;28;20242;-81
2022/09/21 03:33:50;;;;;;;16.27;6.07;;;8.90;1.00;;;;;;5030236;28;20245;-80
2022/09/21 03:36:19;;;;;;;12.80;6.03;;;8.90;1.00;;;;;;5018791;28;20274;-80
2022/09/21 03:38:48;;;;;;;15.05;6.78;;;9.00;1.00;;;;;;5015028;28;20719;-83
2022/09/21 03:41:18;;;;;;;16.38;5.93;;;9.00;1.00;;;;;;5015891;28;20269;-79
2022/09/21 03:43:47;;;;;;;16.67;8.65;;;9.10;1.00;;;;;;5000538;28;20266;-82
2022/09/21 03:46:15;;;;;;;15.82;6.88;;;9.10;1.00;;;;;;5016713;28;20234;-78
2022/09/21 03:48:46;;;;;;;15.82;7.10;;;9.10;1.00;;;;;;5017450;28;20675;-82
2022/09/21 03:51:17;;;;;;;15.20;7.78;;;9.10;1.00;;;;;;5008436;28;20242;-79
2022/09/21 03:53:45;;;;;;;16.95;6.03;;;9.10;1.00;;;;;;5031800;28;23571;-81
2022/09/21 03:56:14;;;;;;;18.17;6.93;;;9.10;1.00;;;;;;5032011;28;20261;-80
2022/09/21 03:58:41;;;;;;;20.75;7.75;;;9.00;1.00;;;;;;5035993;28;20234;-80
2022/09/21 04:01:12;;;;;;;18.00;7.20;;;9.10;1.00;;;;;;5030692;28;20238;-80
2022/09/21 04:03:39;;;;;;;14.75;7.20;;;9.20;1.00;;;;;;5025527;28;20241;-80
2022/09/21 04:06:09;;;;;;;13.75;6.75;;;9.10;1.00;;;;;;5029810;28;20308;-80
2022/09/21 04:08:35;;;;;;;15.05;6.45;;;9.10;1.00;;;;;;5031177;28;20238;-80
2022/09/21 04:11:10;;;;;;;13.30;6.40;;;9.20;1.00;;;;;;5033442;28;20234;-79
2022/09/21 04:13:37;;;;;;;14.00;6.32;;;9.30;1.00;;;;;;5029651;28;20283;-80
2022/09/21 04:16:08;;;;;;;14.13;6.60;;;9.30;1.00;;;;;;5029609;28;20780;-78
2022/09/21 04:18:37;;;;;;;15.48;6.50;;;9.30;1.00;;;;;;5033300;28;20285;-79
2022/09/21 04:21:05;;;;;;;13.25;5.32;;;9.30;1.00;;;;;;5031217;28;20321;-79
2022/09/21 04:23:32;;;;;;;17.92;7.20;;;9.20;1.00;;;;;;5034253;28;20233;-79
2022/09/21 04:25:59;;;;;;;16.13;8.23;;;9.20;1.00;;;;;;5028533;28;20324;-80
2022/09/21 04:28:28;;;;;;;13.07;6.43;;;9.20;1.00;;;;;;5030555;28;20250;-78
2022/09/21 04:30:55;;;;;;;15.27;6.40;;;9.10;1.00;;;;;;5027325;28;21116;-80
2022/09/21 04:33:22;;;;;;;13.20;6.05;;;9.10;1.00;;;;;;5030777;28;20245;-78
2022/09/21 04:35:54;;;;;;;12.07;5.13;;;9.10;1.00;;;;;;5027476;28;20737;-80
2022/09/21 04:38:21;;;;;;;14.73;6.90;;;9.10;1.00;;;;;;5031479;28;20237;-79
2022/09/21 04:40:56;;;;;;;18.05;6.35;;;9.10;1.00;;;;;;5012824;28;20242;-79
2022/09/21 04:43:23;;;;;;;18.88;8.45;;;9.10;1.00;;;;;;5027824;28;20240;-79
2022/09/21 04:45:52;;;;;;;11.45;5.53;;;9.10;1.00;;;;;;5033578;28;20234;-80
2022/09/21 04:48:20;;;;;;;14.15;5.72;;;9.10;1.00;;;;;;5031523;28;20256;-81
2022/09/21 04:50:49;;;;;;;13.80;6.45;;;9.10;1.00;;;;;;5009306;28;20242;-80
2022/09/21 04:53:16;;;;;;;16.25;7.80;;;9.10;1.00;;;;;;5023131;28;20234;-78
2022/09/21 04:55:44;;;;;;;13.02;6.35;;;9.10;1.00;;;;;;5015442;28;20246;-78
2022/09/21 04:58:11;;;;;;;17.85;8.30;;;9.10;1.00;;;;;;5032132;28;20238;-78
2022/09/21 05:00:38;;;;;;;15.85;7.15;;;9.20;1.00;;;;;;5014116;28;20241;-79
2022/09/21 05:03:06;;;;;;;16.20;7.78;;;9.10;1.00;;;;;;5026756;28;20233;-81
2022/09/21 05:05:35;;;;;;;13.70;6.10;;;9.20;1.00;;;;;;5031413;28;20489;-77
2022/09/21 05:08:02;;;;;;;19.35;6.38;;;9.20;1.00;;;;;;5011865;28;20239;-78
2022/09/21 05:10:29;;;;;;;15.05;7.78;;;9.20;1.00;;;;;;5030243;28;20238;-78
2022/09/21 05:12:56;;;;;;;12.82;6.10;;;9.20;1.00;;;;;;5031837;28;20772;-79
2022/09/21 05:15:25;;;;;;;15.60;6.57;;;9.20;1.00;;;;;;5019850;28;20241;-83
2022/09/21 05:17:52;;;;;;;13.48;5.22;;;9.20;1.00;;;;;;5027976;28;20238;-81
2022/09/21 05:20:20;;;;;;;13.55;5.40;;;9.20;1.00;;;;;;5030548;28;20234;-79
2022/09/21 05:22:47;;;;;;;14.52;6.88;;;9.20;1.00;;;;;;5029676;28;20292;-80
2022/09/21 05:25:14;;;;;;;13.30;5.40;;;9.20;1.00;;;;;;5037850;28;20241;-81
2022/09/21 05:27:41;;;;;;;14.20;5.70;;;9.20;1.00;;;;;;5030812;28;20241;-80
2022/09/21 05:30:11;;;;;;;11.77;5.20;;;9.20;1.00;;;;;;5029878;28;20237;-80
2022/09/21 05:32:45;;;;;;;14.65;7.28;;;9.30;1.00;;;;;;5031849;28;20265;-80
2022/09/21 05:35:24;;;;;;;12.27;5.75;;;9.20;1.00;;;;;;5032160;28;20240;-81
2022/09/21 05:38:18;;;;;;;12.73;5.80;;;9.30;1.00;;;;;;5032417;28;20242;-79
2022/09/21 05:40:46;;;;;;;10.68;4.90;;;9.30;1.00;;;;;;5031997;28;20488;-80
2022/09/21 05:43:24;;;;;;;13.57;5.57;;;9.40;1.00;;;;;;5038973;28;20261;-81
2022/09/21 05:45:56;;;;;;;13.20;5.90;;;9.40;1.00;;;;;;5035076;28;20585;-82
2022/09/21 05:48:39;;;;;;;11.98;5.20;;;9.50;1.00;;;;;;5035951;28;21489;-80
2022/09/21 05:51:19;;;;;;;17.23;8.85;;;9.50;1.00;;;;;;4999576;28;20241;-79
2022/09/21 05:53:53;;;;;;;15.60;6.10;;;9.60;1.00;;;;;;5035550;28;20240;-80
2022/09/21 05:56:32;;;;;;;17.75;8.98;;;9.60;1.00;;;;;;5024093;28;20260;-80
2022/09/21 05:59:11;;;;;;;12.50;6.63;;;9.70;1.00;;;;;;5036084;28;20230;-77
2022/09/21 06:01:47;;;;;;;14.38;6.53;;;9.80;1.00;;;;;;5030276;28;20803;-79
2022/09/21 06:04:15;;;;;;;16.63;7.50;;;10.00;1.00;;;;;;5027721;28;20872;-79
2022/09/21 06:06:46;;;;;;;17.27;8.37;;;10.00;1.00;;;;;;4999979;28;20242;-81
2022/09/21 06:09:14;;;;;;;15.77;6.70;;;10.20;1.00;;;;;;4998095;28;20476;-78
2022/09/21 06:11:46;;;;;;;14.80;6.00;;;10.30;1.00;;;;;;5021987;28;20477;-82
2022/09/21 06:14:13;;;;;;;17.43;6.73;;;10.40;1.00;;;;;;5029381;28;20450;-78
2022/09/21 06:16:42;;;;;;;18.17;9.17;;;10.40;1.00;;;;;;5034487;28;20469;-81
2022/09/21 06:19:11;;;;;;;14.13;6.80;;;10.50;1.00;;;;;;5024181;28;20425;-82
2022/09/21 06:21:39;;;;;;;14.77;6.10;;;10.60;1.00;;;;;;5030249;28;20438;-82
2022/09/21 06:24:35;;;;;;;14.05;7.00;;;10.70;1.00;;;;;;5045301;28;20410;-82
2022/09/21 06:27:02;;;;;;;19.40;7.87;;;10.80;1.00;;;;;;5037896;28;20250;-82
2022/09/21 06:29:29;;;;;;;14.67;7.00;;;10.90;1.00;;;;;;5042836;28;20438;-82
2022/09/21 06:32:12;;;;;;;16.70;7.20;;;11.00;1.00;;;;;;5038035;28;20438;-82
2022/09/21 06:34:44;;;;;;;15.27;6.90;;;11.10;1.00;;;;;;5015477;28;20449;-82
2022/09/21 06:37:11;;;;;;;15.80;7.87;;;11.20;1.00;;;;;;5033613;28;21253;-83
2022/09/21 06:39:39;;;;;;;13.73;6.00;;;11.40;1.00;;;;;;5018752;28;20430;-80
2022/09/21 06:42:06;;;;;;;13.83;5.80;;;11.50;1.00;;;;;;5015103;28;20455;-83
2022/09/21 06:44:33;;;;;;;16.87;6.60;;;11.60;1.00;;;;;;5018084;28;20426;-81
2022/09/21 06:47:02;;;;;;;13.87;7.97;;;11.70;1.00;;;;;;5029778;28;20425;-82
2022/09/21 06:49:44;;;;;;;15.50;6.80;;;11.80;1.00;;;;;;5032947;28;20465;-82
2022/09/21 06:52:11;;;;;;;13.83;6.80;;;11.90;1.00;;;;;;5002041;28;20452;-84
2022/09/21 06:54:41;;;;;;;12.60;6.50;;;12.00;1.00;;;;;;5034826;28;20492;-85
2022/09/21 06:57:08;;;;;;;15.70;7.20;;;12.10;1.00;;;;;;5031818;28;20429;-81
2022/09/21 06:59:35;;;;;;;13.77;7.13;;;12.20;1.00;;;;;;5021904;28;20486;-80
2022/09/21 07:02:29;;;;;;;13.00;5.93;;;12.30;1.00;;;;;;5008608;28;20455;-83
2022/09/21 07:04:57;;;;;;;12.03;5.90;;;12.40;1.00;;;;;;5031357;28;20440;-81
2022/09/21 07:07:24;;;;;;;13.07;5.60;;;12.40;1.00;;;;;;5042443;28;20490;-80
2022/09/21 07:09:54;;;;;;;15.37;7.07;;;12.50;1.00;;;;;;5026145;28;21110;-81
2022/09/21 07:12:21;;;;;;;12.60;6.00;;;12.50;1.00;;;;;;5028378;28;20437;-82
2022/09/21 07:15:06;;;;;;;13.67;5.80;;;12.60;1.00;;;;;;5038936;28;21293;-81
2022/09/21 07:17:33;;;;;;;13.80;6.57;;;12.80;1.00;;;;;;5021611;28;20478;-81
2022/09/21 07:20:02;;;;;;;15.10;6.47;;;12.90;1.00;;;;;;5029183;28;20494;-83
2022/09/21 07:22:44;;;;;;;15.23;6.60;;;13.00;1.00;;;;;;5032584;28;20474;-82
2022/09/21 07:25:13;;;;;;;12.33;5.43;;;13.10;1.00;;;;;;5023463;28;20823;-82
2022/09/21 07:27:40;;;;;;;12.90;6.40;;;13.20;1.00;;;;;;4999295;28;20470;-81
2022/09/21 07:30:09;;;;;;;12.13;5.77;;;13.30;1.00;;;;;;5006184;28;20482;-81
2022/09/21 07:32:36;;;;;;;11.70;5.60;;;13.30;1.00;;;;;;5023065;28;20496;-82
2022/09/21 07:35:05;;;;;;;16.23;7.90;;;13.40;1.00;;;;;;5027876;28;20541;-81
2022/09/21 07:37:36;;;;;;;31.77;19.90;;;13.50;1.00;;;;;;5020929;28;20467;-82
2022/09/21 07:40:05;;;;;;;12.80;6.40;;;13.70;1.00;;;;;;5008752;28;20437;-82
2022/09/21 07:42:33;;;;;;;10.50;5.50;;;13.80;1.00;;;;;;5032558;28;20477;-81
2022/09/21 07:45:00;;;;;;;12.60;6.40;;;13.80;1.00;;;;;;5031970;28;20464;-80
2022/09/21 07:47:27;;;;;;;11.00;6.20;;;13.90;1.00;;;;;;5032657;28;20449;-80
2022/09/21 07:49:54;;;;;;;11.93;5.33;;;14.00;1.00;;;;;;5017854;28;20618;-81
2022/09/21 07:52:21;;;;;;;12.00;4.97;;;14.00;1.00;;;;;;5035562;28;20457;-81
2022/09/21 07:54:48;;;;;;;11.10;4.33;;;14.10;1.00;;;;;;5015298;28;20465;-79
2022/09/21 08:00:00;;;;;;;10.93;5.40;;;14.20;1.00;;;;;;5024740;28;20449;-80
2022/09/21 08:02:27;;;;;;;11.20;5.60;;;14.40;1.00;;;;;;5030739;28;20443;-79
2022/09/21 08:04:56;;;;;;;12.27;6.20;;;14.60;1.00;;;;;;5029362;28;20465;-79
2022/09/21 08:07:23;;;;;;;11.40;5.10;;;14.70;1.00;;;;;;5031164;28;21283;-80
2022/09/21 08:09:50;;;;;;;14.90;5.93;;;14.80;1.00;;;;;;5012666;28;20450;-81
2022/09/21 08:12:18;;;;;;;12.70;6.97;;;15.00;1.00;;;;;;5031761;28;20489;-81
2022/09/21 08:14:45;;;;;;;15.37;6.10;;;15.10;1.00;;;;;;5028006;28;20911;-81
2022/09/21 08:17:14;;;;;;;13.67;6.40;;;15.10;1.00;;;;;;5020627;28;20461;-80
2022/09/21 08:19:41;;;;;;;13.23;5.60;;;15.30;1.00;;;;;;5012431;28;20470;-81
2022/09/21 08:22:10;;;;;;;13.23;5.73;;;15.40;1.00;;;;;;5026188;28;20963;-81
2022/09/21 08:24:37;;;;;;;14.00;7.50;;;15.50;1.00;;;;;;5031898;28;20504;-81
2022/09/21 08:27:04;;;;;;;10.90;4.97;;;15.60;1.00;;;;;;5034117;28;20465;-80
2022/09/21 08:29:39;;;;;;;10.70;5.20;;;15.80;1.00;;;;;;5039864;28;20443;-81
2022/09/21 08:32:06;;;;;;;15.47;5.50;;;15.80;1.00;;;;;;5034698;28;20479;-80
2022/09/21 08:34:34;;;;;;;12.40;5.40;;;15.90;1.00;;;;;;5032927;28;20470;-79
2022/09/21 08:37:01;;;;;;;10.33;5.67;;;15.90;1.00;;;;;;5031553;28;20549;-79
2022/09/21 08:39:28;;;;;;;13.50;4.77;;;16.00;1.00;;;;;;5036478;28;20418;-80
2022/09/21 08:42:10;;;;;;;10.07;4.63;;;16.00;1.00;;;;;;5036078;28;20663;-80
2022/09/21 08:44:40;;;;;;;11.17;4.70;;;16.00;1.00;;;;;;5031814;28;20461;-80
2022/09/21 08:47:16;;;;;;;11.73;4.90;;;16.10;1.00;;;;;;5035243;28;20461;-80
2022/09/21 08:49:53;;;;;;;9.43;4.67;;;16.10;1.00;;;;;;5035143;28;20426;-78
2022/09/21 08:52:23;;;;;;;15.80;4.70;;;16.10;1.00;;;;;;5032712;28;20472;-79
2022/09/21 08:54:55;;;;;;;9.40;5.03;;;16.20;1.00;;;;;;5012093;28;21086;-77
2022/09/21 08:57:25;;;;;;;12.50;4.67;;;16.30;1.00;;;;;;5005435;28;20465;-79
2022/09/21 08:59:52;;;;;;;10.10;3.90;;;16.60;1.00;;;;;;5027888;28;20457;-80
2022/09/21 09:02:40;;;;;;;9.20;4.53;;;16.90;1.00;;;;;;5030037;28;21073;-80
2022/09/21 09:05:24;;;;;;;11.90;5.40;;;17.10;1.00;;;;;;5028167;28;20507;-81
2022/09/21 09:08:05;;;;;;;11.30;5.83;;;17.40;1.00;;;;;;5030551;28;20425;-80
2022/09/21 09:10:39;;;;;;;8.43;3.30;;;17.90;1.00;;;;;;5029392;28;20485;-79
2022/09/21 09:13:29;;;;;;;9.10;4.70;;;18.40;1.00;;;;;;5016982;28;20457;-81
2022/09/21 09:16:05;;;;;;;10.07;4.17;;;19.00;1.00;;;;;;5009605;28;20461;-81
2022/09/21 09:18:50;;;;;;;11.43;4.40;;;20.40;1.00;;;;;;5005542;28;21133;-82
2022/09/21 09:21:24;;;;;;;9.10;3.80;;;21.90;1.00;;;;;;5032589;28;20480;-81
2022/09/21 09:23:54;;;;;;;9.03;4.23;;;23.60;1.00;;;;;;5018266;28;20517;-83
2022/09/21 09:26:27;;;;;;;9.60;5.07;;;24.90;1.00;;;;;;5029889;28;20426;-80
2022/09/21 09:28:59;;;;;;;10.00;4.40;;;25.80;1.00;;;;;;5017079;28;20522;-80
2022/09/21 09:31:31;;;;;;;9.03;4.70;;;26.50;1.00;;;;;;5033253;28;20601;-80
2022/09/21 09:34:07;;;;;;;6.83;3.30;;;27.20;1.00;;;;;;5031268;28;20469;-79
2022/09/21 09:36:39;;;;;;;6.90;3.53;;;27.80;1.00;;;;;;5029061;28;20433;-81
2022/09/21 09:39:12;;;;;;;6.70;3.50;;;27.60;1.00;;;;;;5031113;28;20961;-79
2022/09/21 09:42:20;;;;;;;12.90;10.70;;;27.20;1.00;;;;;;5030056;28;21308;-79
2022/09/21 09:45:05;;;;;;;8.23;5.40;;;27.10;1.00;;;;;;4933947;29;20490;-79
2022/09/21 09:47:44;;;;;;;6.90;3.50;;;27.40;1.00;;;;;;4935078;29;20528;-79
2022/09/21 09:50:19;;;;;;;5.00;2.67;;;27.30;1.00;;;;;;4985850;28;20496;-79
2022/09/21 09:52:49;;;;;;;5.23;2.67;;;28.10;1.00;;;;;;5017088;28;20465;-81
2022/09/21 09:55:20;;;;;;;5.43;3.30;;;28.90;1.00;;;;;;5032725;28;20482;-78
2022/09/21 09:57:49;;;;;;;5.53;2.70;;;28.70;1.00;;;;;;5030079;28;20961;-80
2022/09/21 10:00:19;;;;;;;5.50;3.27;;;28.20;1.00;;;;;;5022382;28;20890;-81
2022/09/21 10:02:48;;;;;;;5.77;2.13;;;28.20;1.00;;;;;;5032123;28;20571;-80
2022/09/21 10:05:21;;;;;;;6.10;2.50;;;28.80;1.00;;;;;;5026683;28;20941;-80
2022/09/21 10:07:53;;;;;;;5.97;2.60;;;28.80;1.00;;;;;;5008237;28;20977;-78
2022/09/21 10:10:32;;;;;;;6.70;2.43;;;28.80;1.00;;;;;;5010255;28;20509;-77
2022/09/21 10:13:12;;;;;;;7.53;2.80;;;29.20;1.00;;;;;;5014044;28;20454;-78
2022/09/21 10:15:43;;;;;;;6.77;2.63;;;28.90;1.00;;;;;;5011596;28;20488;-80
2022/09/21 10:18:22;;;;;;;7.13;2.67;;;29.20;1.00;;;;;;5014202;28;20451;-79
2022/09/21 10:20:58;;;;;;;4.30;2.40;;;29.90;1.00;;;;;;5007437;28;20462;-79
2022/09/21 10:23:27;;;;;;;4.60;2.20;;;30.10;1.00;;;;;;5013662;28;21228;-79
2022/09/21 10:26:04;;;;;;;4.03;2.30;;;30.30;1.00;;;;;;5005217;28;20471;-80
2022/09/21 10:28:33;;;;;;;4.87;2.90;;;30.90;1.00;;;;;;5024613;28;20485;-79
2022/09/21 10:31:17;;;;;;;8.43;3.20;;;31.50;1.00;;;;;;5010868;28;20454;-79
2022/09/21 10:33:54;;;;;;;6.47;3.90;;;31.50;1.00;;;;;;5011881;28;20470;-79
2022/09/21 10:36:30;;;;;;;5.63;3.93;;;29.30;1.00;;;;;;5012842;28;20454;-80
2022/09/21 10:39:20;;;;;;;6.50;3.30;;;27.10;1.00;;;;;;5012810;28;20438;-79
2022/09/21 10:41:58;;;;;;;6.30;3.10;;;26.00;1.00;;;;;;5011750;28;20941;-78
2022/09/21 10:44:28;;;;;;;4.13;1.97;;;26.70;1.00;;;;;;5010915;28;20446;-79
2022/09/21 10:46:55;;;;;;;5.20;2.30;;;27.80;1.00;;;;;;5009509;28;20863;-79
2022/09/21 10:49:25;;;;;;;5.13;1.60;;;27.50;1.00;;;;;;5013636;28;20518;-79
2022/09/21 10:51:57;;;;;;;5.50;2.00;;;27.30;1.00;;;;;;5010970;28;20485;-79
2022/09/21 10:54:33;;;;;;;5.07;1.70;;;28.60;1.00;;;;;;5015427;28;20486;-79
2022/09/21 10:57:06;;;;;;;3.83;1.33;;;30.00;1.00;;;;;;5011936;28;20862;-79
2022/09/21 10:59:35;;;;;;;2.90;1.30;;;30.90;1.00;;;;;;5012427;28;20495;-80
2022/09/21 11:02:23;;;;;;;4.90;2.00;;;30.80;1.00;;;;;;5008355;28;20524;-80
2022/09/21 11:04:53;;;;;;;3.73;1.50;;;29.00;1.00;;;;;;5010756;28;20549;-80
2022/09/21 11:07:27;;;;;;;3.57;1.50;;;27.50;1.00;;;;;;5016077;28;20485;-79
2022/09/21 11:10:00;;;;;;;15.97;14.43;;;26.00;1.00;;;;;;5013262;28;20516;-80
2022/09/21 11:12:39;;;;;;;6.00;2.30;;;24.70;1.00;;;;;;5010720;28;20466;-80
2022/09/21 11:15:20;;;;;;;6.10;2.23;;;23.50;1.00;;;;;;5012256;28;20481;-81
2022/09/21 11:17:54;;;;;;;6.87;3.70;;;22.50;1.00;;;;;;5012109;28;20474;-77
2022/09/21 11:20:30;;;;;;;6.83;4.40;;;21.60;1.00;;;;;;5013226;28;20426;-79
2022/09/21 11:23:04;;;;;;;6.90;2.17;;;20.80;1.00;;;;;;5011991;28;20451;-79
2022/09/21 11:25:41;;;;;;;6.60;2.23;;;21.20;1.00;;;;;;5016646;28;20499;-80
2022/09/21 11:28:18;;;;;;;6.30;3.13;;;24.10;1.00;;;;;;5011173;28;20473;-80
2022/09/21 11:31:01;;;;;;;5.30;1.60;;;27.30;1.00;;;;;;5012467;28;20476;-80
2022/09/21 11:33:42;;;;;;;5.57;1.10;;;28.30;1.00;;;;;;5012691;28;20545;-79
2022/09/21 11:36:19;;;;;;;2.77;0.90;;;30.30;1.00;;;;;;5025414;28;20445;-80
2022/09/21 11:38:57;;;;;;;3.90;1.83;;;31.60;1.00;;;;;;5030288;28;20464;-80
2022/09/21 11:41:53;;;;;;;3.03;1.20;;;32.70;1.00;;;;;;5034607;28;20484;-81
2022/09/21 11:44:48;;;;;;;3.23;1.40;;;33.50;1.00;;;;;;5038707;28;20468;-80
2022/09/21 11:47:36;;;;;;;5.10;1.50;;;32.10;1.00;;;;;;5034071;28;20499;-80
2022/09/21 11:50:18;;;;;;;4.90;4.00;;;30.10;1.00;;;;;;5035831;28;20540;-81
2022/09/21 11:52:54;;;;;;;3.80;1.47;;;27.80;1.00;;;;;;5034131;28;20507;-80
2022/09/21 11:55:45;;;;;;;3.10;1.50;;;26.10;1.00;;;;;;5021683;28;20517;-80
2022/09/21 11:58:23;;;;;;;4.60;1.50;;;24.30;1.00;;;;;;5036406;28;20544;-79
2022/09/21 12:01:08;;;;;;;3.60;1.93;;;23.00;1.00;;;;;;5035571;28;20484;-81
2022/09/21 12:03:57;;;;;;;6.10;2.40;;;21.90;1.00;;;;;;5036851;28;20464;-81
2022/09/21 12:06:40;;;;;;;3.67;1.43;;;21.20;1.00;;;;;;5035863;28;20457;-80
2022/09/21 12:09:44;;;;;;;4.37;1.90;;;20.80;1.00;;;;;;5018915;28;20421;-80
2022/09/21 12:12:18;;;;;;;5.70;1.70;;;21.40;1.00;;;;;;4998347;28;20656;-80
2022/09/21 12:14:55;;;;;;;6.10;2.93;;;25.30;1.00;;;;;;5019228;28;20604;-79
2022/09/21 12:17:30;;;;;;;3.43;1.20;;;28.40;1.00;;;;;;5035439;28;20445;-80
2022/09/21 12:20:09;;;;;;;3.43;1.20;;;31.00;1.00;;;;;;5035618;28;20966;-79
2022/09/21 12:22:40;;;;;;;6.20;1.30;;;32.60;1.00;;;;;;5031123;28;20506;-80
2022/09/21 12:25:15;;;;;;;4.13;2.93;;;33.30;1.00;;;;;;5015386;28;20458;-80
2022/09/21 12:27:48;;;;;;;2.40;1.00;;;34.20;1.00;;;;;;5013170;28;20441;-80
2022/09/21 12:30:21;;;;;;;5.37;2.40;;;34.70;1.00;;;;;;5013366;28;20447;-82
2022/09/21 12:32:57;;;;;;;2.00;0.90;;;35.30;1.00;;;;;;5010873;28;20482;-81
2022/09/21 12:35:33;;;;;;;3.47;2.43;;;36.30;1.00;;;;;;5017839;28;20450;-80
2022/09/21 12:38:05;;;;;;;2.30;1.00;;;36.70;1.00;;;;;;5012126;28;20461;-79
2022/09/21 12:40:42;;;;;;;4.50;0.87;;;37.00;1.00;;;;;;5019670;28;20456;-81
2022/09/21 12:43:22;;;;;;;2.30;1.00;;;37.30;1.00;;;;;;5012659;28;20458;-81
2022/09/21 12:45:54;;;;;;;2.60;1.10;;;37.40;1.00;;;;;;5021598;28;20499;-82
2022/09/21 12:48:38;;;;;;;2.57;1.00;;;37.40;1.00;;;;;;5031639;28;20457;-81
2022/09/21 12:51:12;;;;;;;2.20;1.23;;;37.90;1.00;;;;;;5031207;28;20417;-82
2022/09/21 12:53:41;;;;;;;2.10;0.97;;;38.30;1.00;;;;;;5037416;28;20539;-80
2022/09/21 12:56:15;;;;;;;3.53;1.30;;;38.30;1.00;;;;;;5034679;28;20437;-82
2022/09/21 12:58:56;;;;;;;2.20;1.13;;;37.50;1.00;;;;;;5033207;28;20473;-80
2022/09/21 13:01:32;;;;;;;4.50;2.00;;;35.50;1.00;;;;;;5015581;28;20456;-82
2022/09/21 13:04:27;;;;;;;3.00;1.03;;;33.10;1.00;;;;;;5012465;28;20474;-80
2022/09/21 13:07:24;;;;;;;3.37;1.70;;;31.20;1.00;;;;;;5009568;28;20463;-81
2022/09/21 13:09:53;;;;;;;3.87;1.17;;;29.00;1.00;;;;;;5014001;28;20505;-80
2022/09/21 13:12:25;;;;;;;2.50;1.20;;;27.20;1.00;;;;;;5017172;28;20451;-80
2022/09/21 13:15:03;;;;;;;4.67;1.57;;;25.90;1.00;;;;;;5013618;28;20474;-81
2022/09/21 13:17:32;;;;;;;5.27;2.03;;;24.90;1.00;;;;;;5018304;28;20438;-80
2022/09/21 13:20:04;;;;;;;3.67;2.07;;;24.20;1.00;;;;;;5012927;28;20444;-81
2022/09/21 13:22:33;;;;;;;5.67;3.43;;;23.60;1.00;;;;;;5016617;28;20490;-81
2022/09/21 13:25:07;;;;;;;6.43;3.30;;;23.00;1.00;;;;;;5015947;28;20438;-81
2022/09/21 13:27:59;;;;;;;5.53;2.33;;;22.30;1.00;;;;;;5013610;28;20557;-83